首页
METAR-TAF:

METAR-TAF

机场 :

Grande Prairie, 艾伯塔, 加拿大

纬度: 55-11N, 经度: 118-53W, 海拔: 666米

当前天气观测

该预报发布于35分钟前的10:33 UTC
静风
温度 -4°C
湿度 93%
气压 1004 hPa
能見度: 24.1公里
阴天层高于6200英尺
(小) 冻, 雨

METAR: CYQU 151033Z CCA 00000KT 15SM -FZRA OVC062 M04/M05 A2966 RMK SC8 CIG RAG SLP084

时间: 04:08 (11:08 UTC)

预报

该预报发布于14分钟前的10:54 UTC
预报有效从15日的 10点(UTC)到 15日的 19点(UTC)
风速3节,风向多变
能見度: 10公里
散云层高于6000英尺
阴天层高于12000英尺
短暂存在
从 15日的 10点(UTC)到 15日的 12点(UTC)
能見度: 10公里
散云层高于2000英尺
阴天层高于6000英尺
(小) 冻, 雨
从 15日的 1200点(UTC)
风速3节,风向多变
能見度: 10公里
阴天层高于4000英尺
短暂存在
从 15日的 12点(UTC)到 15日的 18点(UTC)
能見度: 6.4公里
散云层高于600英尺
阴天层高于1200英尺
(小) 冻, 雨, 轻雾
几率 40%
从 15日的 12点(UTC)到 15日的 18点(UTC)
能見度: 1.6公里
阴天层高于600英尺
(小) 冻, 雨, 轻雾
从 15日的 1800点(UTC)
风速8节,风向西
能見度: 10公里
散云层高于6000英尺

TAF: CYQU 151054Z 1510/1519 VRB03KT P6SM SCT060 OVC120 TEMPO 1510/1512 P6SM -FZRA SCT020 OVC060 FM151200 VRB03KT P6SM OVC040 TEMPO 1512/1518 4SM -FZRA BR SCT006 OVC012 PROB40 1512/1518 1SM -FZRA BR OVC006 FM151800 26008KT P6SM SCT060 RMK NXT FCST BY 151300Z

超过4000个机场的气象观测和天气预报(METAR&TAF报告)。

可查询的气象台以黄色和红色小点在地图上表示。

将鼠标移到小点上方,可查看气象台名称。

然后点击查看天气观测和预报。

如需切换地图:点击带黑十字的绿色按钮放大地图;点击带横线的绿色按钮缩小地图;或者点击绿色箭头查看邻近地区的地图。


METAR-TAF: